Time;durP1;ratioP1;P1;durP2;ratioP2;P2;SDS_P1;SDS_P2;PMS_P1;PMS_P2;Temp;Humidity;BMP_temperature;BMP_pressure;BME280_temperature;BME280_humidity;BME280_pressure;Samples;Min_cycle;Max_cycle;Signal;HPM_P1;HPM_P2
2023/04/27 00:01:11;;;;;;;2.90;0.87;;;3.80;99.90;;;;;;4987740;28;20029;-70
2023/04/27 00:03:38;;;;;;;2.67;1.10;;;3.80;99.90;;;;;;4994156;28;20056;-71
2023/04/27 00:06:04;;;;;;;3.40;1.27;;;3.80;99.90;;;;;;4987907;28;20033;-70
2023/04/27 00:08:31;;;;;;;5.10;1.40;;;3.80;99.90;;;;;;4982937;28;20041;-70
2023/04/27 00:10:57;;;;;;;3.03;1.27;;;3.70;99.90;;;;;;4976771;28;20040;-70
2023/04/27 00:13:23;;;;;;;3.83;1.20;;;3.70;99.90;;;;;;4983919;28;20044;-71
2023/04/27 00:15:50;;;;;;;3.23;1.40;;;3.70;99.90;;;;;;4986931;28;20033;-70
2023/04/27 00:18:16;;;;;;;2.60;0.90;;;3.70;99.90;;;;;;4988127;28;20064;-70
2023/04/27 00:20:43;;;;;;;4.47;1.57;;;3.70;99.90;;;;;;4985689;28;20049;-70
2023/04/27 00:23:10;;;;;;;3.80;1.17;;;3.70;99.90;;;;;;4995649;28;20049;-70
2023/04/27 00:25:36;;;;;;;3.00;1.17;;;3.60;99.90;;;;;;4996440;28;20049;-70
2023/04/27 00:28:02;;;;;;;5.90;1.10;;;3.60;99.90;;;;;;4986017;28;20599;-70
2023/04/27 00:30:30;;;;;;;3.13;1.30;;;3.60;99.90;;;;;;4982898;28;20038;-70
2023/04/27 00:32:56;;;;;;;5.63;1.50;;;3.60;99.90;;;;;;4984771;28;20045;-71
2023/04/27 00:35:23;;;;;;;6.23;1.20;;;3.60;99.90;;;;;;4985298;28;20033;-70
2023/04/27 00:37:49;;;;;;;3.60;1.13;;;3.60;99.90;;;;;;4985264;28;20053;-70
2023/04/27 00:40:15;;;;;;;2.97;1.03;;;3.60;99.90;;;;;;5004042;28;20512;-70
2023/04/27 00:42:42;;;;;;;3.37;1.10;;;3.60;99.90;;;;;;4992139;28;20048;-71
2023/04/27 00:45:09;;;;;;;2.53;0.73;;;3.60;99.90;;;;;;4994726;28;20037;-70
2023/04/27 00:47:35;;;;;;;2.00;0.80;;;3.60;99.90;;;;;;4986070;28;20048;-70
2023/04/27 00:50:03;;;;;;;2.00;0.90;;;3.60;99.90;;;;;;5014346;28;20057;-70
2023/04/27 00:52:30;;;;;;;3.00;0.80;;;3.60;99.90;;;;;;4966316;28;20045;-70
2023/04/27 00:54:56;;;;;;;1.90;0.70;;;3.60;99.90;;;;;;4985953;28;20136;-71
2023/04/27 00:57:23;;;;;;;2.50;1.10;;;3.60;99.90;;;;;;4987149;28;20776;-71
2023/04/27 00:59:49;;;;;;;2.27;0.73;;;3.60;99.90;;;;;;4984586;28;20056;-70
2023/04/27 01:02:16;;;;;;;3.07;0.90;;;3.60;99.90;;;;;;4975472;28;20520;-70
2023/04/27 01:04:42;;;;;;;2.43;0.80;;;3.50;99.90;;;;;;4979623;28;20052;-70
2023/04/27 01:07:08;;;;;;;1.70;0.80;;;3.50;99.90;;;;;;4989263;28;20040;-69
2023/04/27 01:09:35;;;;;;;2.90;0.80;;;3.50;99.90;;;;;;4968952;28;20048;-70
2023/04/27 01:12:02;;;;;;;1.77;0.60;;;3.50;99.90;;;;;;4965412;28;20041;-71
2023/04/27 01:14:28;;;;;;;2.47;0.90;;;3.50;99.90;;;;;;4987080;28;20029;-70
2023/04/27 01:16:55;;;;;;;1.53;0.83;;;3.50;99.90;;;;;;5004740;28;20466;-71
2023/04/27 01:19:21;;;;;;;4.33;0.67;;;3.50;99.90;;;;;;4970836;28;20173;-70
2023/04/27 01:21:49;;;;;;;3.00;1.27;;;3.50;99.90;;;;;;4984251;28;20033;-69
2023/04/27 01:24:16;;;;;;;1.87;0.90;;;3.40;99.90;;;;;;5014011;28;20526;-70
2023/04/27 01:26:42;;;;;;;2.63;1.47;;;3.40;99.90;;;;;;4995875;28;20037;-70
2023/04/27 01:29:09;;;;;;;2.67;1.40;;;3.40;99.90;;;;;;4987126;28;20037;-70
2023/04/27 01:31:36;;;;;;;5.30;1.40;;;3.40;99.90;;;;;;4980088;28;20025;-70
2023/04/27 01:34:02;;;;;;;6.03;1.40;;;3.40;99.90;;;;;;5017190;28;20033;-70
2023/04/27 01:36:29;;;;;;;6.40;1.87;;;3.40;99.90;;;;;;4972515;28;20041;-70
2023/04/27 01:38:55;;;;;;;6.27;1.80;;;3.40;99.90;;;;;;4988935;28;20104;-71
2023/04/27 01:41:22;;;;;;;3.83;1.37;;;3.40;99.90;;;;;;4981317;28;20497;-71
2023/04/27 01:43:49;;;;;;;3.60;1.00;;;3.40;99.90;;;;;;5029257;28;20048;-70
2023/04/27 01:46:15;;;;;;;2.60;0.80;;;3.30;99.90;;;;;;4995908;28;20948;-70
2023/04/27 01:48:41;;;;;;;2.73;0.73;;;3.30;99.90;;;;;;4990713;28;20029;-70
2023/04/27 01:51:08;;;;;;;1.67;0.70;;;3.30;99.90;;;;;;4979349;28;20631;-70
2023/04/27 01:53:34;;;;;;;3.50;1.00;;;3.30;99.90;;;;;;4987891;28;20136;-70
2023/04/27 01:56:00;;;;;;;2.60;0.93;;;3.30;99.90;;;;;;4987436;28;20510;-70
2023/04/27 01:58:27;;;;;;;5.47;1.40;;;3.20;99.90;;;;;;4988954;28;20041;-70
2023/04/27 02:00:53;;;;;;;2.43;1.20;;;3.20;99.90;;;;;;4982523;28;20511;-70
2023/04/27 02:03:20;;;;;;;1.57;0.60;;;3.20;99.90;;;;;;4996124;28;20033;-71
2023/04/27 02:05:46;;;;;;;2.77;0.80;;;3.20;99.90;;;;;;4979867;28;20315;-70
2023/04/27 02:08:13;;;;;;;2.80;0.90;;;3.20;99.90;;;;;;4990339;28;20326;-70
2023/04/27 02:10:40;;;;;;;2.87;1.23;;;3.20;99.90;;;;;;4965664;28;20072;-69
2023/04/27 02:13:06;;;;;;;6.53;1.37;;;3.10;99.90;;;;;;4986196;28;20033;-70
2023/04/27 02:15:34;;;;;;;2.30;0.77;;;3.10;99.90;;;;;;4971710;28;20468;-70
2023/04/27 02:18:02;;;;;;;1.30;0.67;;;3.10;99.90;;;;;;4986588;28;20044;-71
2023/04/27 02:20:32;;;;;;;1.70;0.50;;;3.10;99.90;;;;;;5012660;28;20037;-71
2023/04/27 02:23:01;;;;;;;2.17;0.80;;;3.10;99.90;;;;;;4989834;28;20049;-70
2023/04/27 02:25:27;;;;;;;3.40;1.03;;;3.00;99.90;;;;;;4978754;28;20311;-71
2023/04/27 02:27:53;;;;;;;2.07;0.67;;;3.00;99.90;;;;;;4960464;28;20037;-71
2023/04/27 02:30:20;;;;;;;2.00;0.90;;;3.00;99.90;;;;;;4964400;28;20573;-70
2023/04/27 02:32:46;;;;;;;3.77;0.80;;;3.00;99.90;;;;;;4985597;28;20034;-71
2023/04/27 02:35:13;;;;;;;2.10;0.60;;;3.00;99.90;;;;;;4984828;28;20030;-70
2023/04/27 02:37:39;;;;;;;3.50;0.80;;;2.90;99.90;;;;;;4985117;28;20504;-71
2023/04/27 02:40:07;;;;;;;1.53;0.60;;;2.90;99.90;;;;;;4966756;28;20053;-70
2023/04/27 02:42:34;;;;;;;3.37;0.87;;;2.90;99.90;;;;;;4982209;28;20034;-70
2023/04/27 02:45:00;;;;;;;2.70;0.63;;;2.90;99.90;;;;;;4994991;28;20389;-70
2023/04/27 02:47:27;;;;;;;2.37;0.90;;;2.90;99.90;;;;;;4993204;28;20037;-71
2023/04/27 02:49:53;;;;;;;4.13;0.93;;;2.80;99.90;;;;;;4988699;28;20520;-71
2023/04/27 02:52:19;;;;;;;3.30;0.80;;;2.80;99.90;;;;;;4982279;28;20542;-70
2023/04/27 02:54:45;;;;;;;2.70;0.90;;;2.80;99.90;;;;;;4988219;28;20040;-70
2023/04/27 02:57:12;;;;;;;1.97;0.70;;;2.80;99.90;;;;;;4968115;28;20032;-70
2023/04/27 02:59:38;;;;;;;2.63;0.60;;;2.80;99.90;;;;;;4985049;28;20040;-70
2023/04/27 03:02:04;;;;;;;3.17;0.90;;;2.80;99.90;;;;;;4982428;28;20033;-71
2023/04/27 03:04:31;;;;;;;2.03;0.70;;;2.80;99.90;;;;;;4989243;28;20041;-71
2023/04/27 03:06:57;;;;;;;2.53;0.70;;;2.80;99.90;;;;;;4994603;28;20396;-70
2023/04/27 03:09:23;;;;;;;2.53;0.80;;;2.80;99.90;;;;;;4992550;28;20041;-70
2023/04/27 03:11:50;;;;;;;2.50;0.60;;;2.80;99.90;;;;;;4978941;28;20605;-70
2023/04/27 03:14:16;;;;;;;1.07;0.47;;;2.80;99.90;;;;;;5017934;28;20048;-70
2023/04/27 03:16:42;;;;;;;2.40;0.70;;;2.70;99.90;;;;;;4986742;28;20037;-70
2023/04/27 03:19:08;;;;;;;3.23;0.80;;;2.70;99.90;;;;;;4986439;28;23347;-71
2023/04/27 03:21:35;;;;;;;2.57;0.47;;;2.70;99.90;;;;;;4977561;28;20052;-70
2023/04/27 03:24:01;;;;;;;1.67;0.63;;;2.70;99.90;;;;;;4989659;28;20041;-71
2023/04/27 03:26:28;;;;;;;3.33;0.60;;;2.70;99.90;;;;;;4976919;28;20495;-71
2023/04/27 03:28:57;;;;;;;0.93;0.50;;;2.70;99.90;;;;;;4994423;28;21467;-71
2023/04/27 03:31:23;;;;;;;2.70;0.60;;;2.70;99.90;;;;;;4947129;28;20056;-70
2023/04/27 03:33:49;;;;;;;3.03;0.50;;;2.60;99.90;;;;;;4968395;28;20042;-70
2023/04/27 03:36:15;;;;;;;3.23;0.60;;;2.60;99.90;;;;;;5001767;28;20060;-70
2023/04/27 03:38:42;;;;;;;1.83;0.50;;;2.60;99.90;;;;;;4970877;28;21731;-70
2023/04/27 03:41:08;;;;;;;1.77;0.60;;;2.60;99.90;;;;;;4978385;28;20034;-71
2023/04/27 03:43:35;;;;;;;1.87;0.60;;;2.60;99.90;;;;;;4988065;28;20037;-71
2023/04/27 03:46:02;;;;;;;2.67;0.63;;;2.60;99.90;;;;;;4994549;28;20026;-71
2023/04/27 03:48:28;;;;;;;1.83;0.70;;;2.60;99.90;;;;;;4993612;28;20562;-71
2023/04/27 03:50:55;;;;;;;2.33;0.57;;;2.60;99.90;;;;;;4985264;28;20425;-70
2023/04/27 03:53:22;;;;;;;1.80;0.70;;;2.60;99.90;;;;;;4969526;28;20041;-71
2023/04/27 03:55:49;;;;;;;1.00;0.50;;;2.50;99.90;;;;;;4984358;28;20037;-72
2023/04/27 03:58:16;;;;;;;2.23;0.70;;;2.50;99.90;;;;;;4986464;28;20033;-71
2023/04/27 04:01:00;;;;;;;1.30;0.60;;;2.50;99.90;;;;;;5009988;28;20033;-72
2023/04/27 04:03:28;;;;;;;1.50;0.50;;;2.50;99.90;;;;;;4984432;28;20481;-71
2023/04/27 04:05:54;;;;;;;1.30;0.43;;;2.50;99.90;;;;;;4992235;28;20404;-71
2023/04/27 04:08:20;;;;;;;3.90;1.00;;;2.50;99.90;;;;;;4977265;28;20673;-71
2023/04/27 04:10:47;;;;;;;1.37;0.50;;;2.50;99.90;;;;;;5000821;28;20044;-71
2023/04/27 04:13:13;;;;;;;3.33;0.50;;;2.50;99.90;;;;;;5015871;28;20388;-71
2023/04/27 04:15:40;;;;;;;1.43;0.47;;;2.50;99.90;;;;;;4998798;28;20037;-72
2023/04/27 04:18:06;;;;;;;3.43;0.83;;;2.50;99.90;;;;;;4985199;28;20044;-71
2023/04/27 04:20:34;;;;;;;2.97;0.80;;;2.40;99.90;;;;;;4948326;28;20045;-71
2023/04/27 04:23:01;;;;;;;3.50;1.10;;;2.50;99.90;;;;;;4984169;28;20500;-72
2023/04/27 04:25:27;;;;;;;4.17;0.90;;;2.50;99.90;;;;;;4991766;28;20034;-72
2023/04/27 04:27:53;;;;;;;3.43;1.07;;;2.50;99.90;;;;;;4979190;28;20034;-71
2023/04/27 04:30:21;;;;;;;1.57;0.70;;;2.50;99.90;;;;;;5021053;28;20044;-71
2023/04/27 04:32:48;;;;;;;2.87;0.80;;;2.60;99.90;;;;;;4985859;28;20148;-72
2023/04/27 04:35:18;;;;;;;2.33;0.83;;;2.60;99.90;;;;;;4988396;28;20033;-72
2023/04/27 04:37:45;;;;;;;5.00;1.87;;;2.60;99.90;;;;;;5005922;28;20669;-71
2023/04/27 04:40:12;;;;;;;4.90;1.10;;;2.70;99.90;;;;;;4969989;28;20486;-71
2023/04/27 04:42:39;;;;;;;3.47;1.10;;;2.80;99.90;;;;;;5016326;28;20440;-71
2023/04/27 04:45:08;;;;;;;2.70;0.80;;;2.80;99.90;;;;;;4964903;28;20503;-71
2023/04/27 04:47:35;;;;;;;1.90;0.70;;;2.90;99.90;;;;;;4981117;28;20045;-71
2023/04/27 04:50:01;;;;;;;3.17;1.00;;;2.90;99.90;;;;;;4994108;28;20053;-72
2023/04/27 04:52:31;;;;;;;3.63;1.30;;;3.00;99.90;;;;;;4969983;28;20741;-71
2023/04/27 04:54:58;;;;;;;4.27;1.40;;;3.10;99.90;;;;;;4972555;28;20056;-71
2023/04/27 04:57:24;;;;;;;4.73;2.17;;;3.20;99.90;;;;;;4989083;28;23494;-71
2023/04/27 04:59:51;;;;;;;4.80;2.13;;;3.30;99.90;;;;;;4987656;28;20037;-71
2023/04/27 05:02:17;;;;;;;2.80;1.70;;;3.40;99.90;;;;;;4987138;28;20060;-72
2023/04/27 05:04:43;;;;;;;4.43;2.23;;;3.50;99.90;;;;;;4975481;28;20049;-72
2023/04/27 05:07:10;;;;;;;6.90;2.53;;;3.70;99.90;;;;;;4981250;28;20072;-70
2023/04/27 05:09:37;;;;;;;6.00;2.63;;;3.80;99.90;;;;;;4995473;28;20034;-72
2023/04/27 05:12:03;;;;;;;5.23;2.20;;;3.90;99.90;;;;;;4983355;28;20052;-71
2023/04/27 05:14:30;;;;;;;4.73;2.10;;;3.90;99.90;;;;;;4974607;28;20041;-71
2023/04/27 05:16:56;;;;;;;8.03;2.87;;;4.00;99.90;;;;;;4991722;28;20846;-71
2023/04/27 05:19:23;;;;;;;5.77;2.83;;;4.00;99.90;;;;;;5005931;28;20060;-71
2023/04/27 05:21:50;;;;;;;6.70;2.70;;;4.00;99.90;;;;;;4982252;28;20700;-71
2023/04/27 05:24:17;;;;;;;4.37;2.40;;;4.10;99.90;;;;;;4993958;28;20618;-73
2023/04/27 05:26:43;;;;;;;5.70;3.33;;;4.10;99.90;;;;;;4997898;28;20131;-72
2023/04/27 05:29:10;;;;;;;8.13;4.37;;;4.20;99.90;;;;;;4996468;28;20489;-72
2023/04/27 05:31:36;;;;;;;7.93;4.00;;;4.30;99.90;;;;;;4981391;28;20033;-70
2023/04/27 05:34:02;;;;;;;10.90;4.80;;;4.30;99.90;;;;;;4987411;28;20485;-70
2023/04/27 05:36:29;;;;;;;6.50;3.67;;;4.40;99.90;;;;;;4987192;28;20720;-70
2023/04/27 05:38:55;;;;;;;8.30;3.63;;;4.50;99.90;;;;;;5002195;28;20547;-70
2023/04/27 05:41:22;;;;;;;7.27;4.40;;;4.60;99.90;;;;;;4995089;28;20392;-70
2023/04/27 05:43:48;;;;;;;7.47;4.37;;;4.70;99.90;;;;;;4992213;28;20038;-70
2023/04/27 05:46:15;;;;;;;6.60;3.63;;;4.90;99.90;;;;;;4996203;28;20041;-71
2023/04/27 05:48:41;;;;;;;6.00;3.47;;;5.00;99.90;;;;;;4978968;28;20035;-71
2023/04/27 05:51:08;;;;;;;5.10;3.73;;;5.20;99.90;;;;;;4979674;28;20051;-70
2023/04/27 05:53:34;;;;;;;9.00;3.47;;;5.30;99.90;;;;;;4987970;28;20041;-70
2023/04/27 05:56:03;;;;;;;6.73;3.80;;;5.50;99.90;;;;;;4987842;28;20469;-70
2023/04/27 05:58:29;;;;;;;6.60;2.75;;;5.70;99.90;;;;;;4989118;28;20595;-70
2023/04/27 06:00:56;;;;;;;8.63;3.90;;;5.80;99.90;;;;;;4965315;28;20526;-71
2023/04/27 06:03:22;;;;;;;7.50;3.37;;;5.90;99.90;;;;;;5021245;28;20041;-70
2023/04/27 06:05:54;;;;;;;7.03;3.33;;;6.10;99.90;;;;;;4996953;28;20041;-70
2023/04/27 06:08:20;;;;;;;6.47;3.65;;;6.30;99.90;;;;;;4996882;28;20303;-71
2023/04/27 06:10:47;;;;;;;6.60;2.28;;;6.40;99.90;;;;;;4980802;28;20029;-71
2023/04/27 06:13:13;;;;;;;5.93;2.97;;;6.60;99.90;;;;;;4987026;28;20036;-70
2023/04/27 06:15:40;;;;;;;5.72;3.13;;;6.70;99.90;;;;;;4986097;28;21489;-70
2023/04/27 06:18:06;;;;;;;4.55;2.78;;;6.80;99.90;;;;;;4986405;28;20164;-71
2023/04/27 06:20:32;;;;;;;4.65;2.25;;;6.90;99.90;;;;;;4981635;28;20048;-71
2023/04/27 06:23:00;;;;;;;7.55;3.00;;;7.10;99.90;;;;;;4970409;28;20392;-71
2023/04/27 06:25:27;;;;;;;6.38;2.58;;;7.20;99.90;;;;;;4995452;28;20436;-71
2023/04/27 06:27:57;;;;;;;8.27;3.30;;;7.40;99.90;;;;;;4994183;28;20041;-72
2023/04/27 06:30:24;;;;;;;7.10;2.25;;;7.50;99.90;;;;;;4985457;28;20125;-72
2023/04/27 06:32:51;;;;;;;5.00;2.13;;;7.60;99.90;;;;;;4985041;28;20546;-71
2023/04/27 06:35:17;;;;;;;4.03;1.67;;;7.80;99.90;;;;;;5002490;28;20048;-70
2023/04/27 06:37:46;;;;;;;5.90;2.40;;;8.00;99.90;;;;;;4987429;28;20029;-72
2023/04/27 06:40:12;;;;;;;6.32;2.80;;;8.30;99.90;;;;;;4983318;28;20041;-72
2023/04/27 06:42:38;;;;;;;5.40;1.60;;;8.60;99.90;;;;;;4985031;28;20489;-70
2023/04/27 06:45:06;;;;;;;4.50;1.73;;;8.70;99.90;;;;;;4978638;28;20547;-71
2023/04/27 06:47:32;;;;;;;4.07;1.63;;;8.90;99.90;;;;;;4996189;28;20417;-71
2023/04/27 06:49:58;;;;;;;4.22;1.90;;;8.90;99.90;;;;;;4986728;28;20049;-72
2023/04/27 06:52:24;;;;;;;2.28;1.25;;;9.00;99.90;;;;;;4980392;28;20036;-72
2023/04/27 06:54:51;;;;;;;5.45;1.70;;;9.00;99.90;;;;;;4987207;28;20056;-72
2023/04/27 06:57:17;;;;;;;3.40;1.38;;;9.20;99.90;;;;;;5004615;28;20029;-73
2023/04/27 06:59:44;;;;;;;4.35;1.75;;;9.40;99.90;;;;;;4966914;28;20040;-72
2023/04/27 07:02:10;;;;;;;3.63;1.55;;;9.60;99.90;;;;;;4983398;28;20029;-71
2023/04/27 07:04:37;;;;;;;6.22;1.85;;;9.80;99.90;;;;;;4992848;28;21302;-72
2023/04/27 07:07:03;;;;;;;4.72;2.03;;;9.90;99.90;;;;;;4994910;28;20034;-70
2023/04/27 07:09:29;;;;;;;4.60;1.92;;;10.00;99.90;;;;;;4991123;28;20535;-71
2023/04/27 07:11:57;;;;;;;4.63;1.58;;;9.90;99.90;;;;;;4979742;28;20048;-72
2023/04/27 07:14:23;;;;;;;3.65;1.48;;;10.00;99.90;;;;;;4987883;28;20029;-72
2023/04/27 07:16:50;;;;;;;5.53;2.00;;;10.00;99.90;;;;;;4983938;28;20028;-72
2023/04/27 07:19:16;;;;;;;4.38;1.92;;;10.00;99.90;;;;;;4987641;28;20041;-73
2023/04/27 07:21:43;;;;;;;2.53;1.50;;;10.00;99.90;;;;;;4976901;28;20389;-71
2023/04/27 07:24:09;;;;;;;4.10;2.13;;;10.00;99.90;;;;;;5003041;28;20045;-73
2023/04/27 07:26:36;;;;;;;4.60;1.85;;;10.00;99.90;;;;;;4995613;28;20409;-72
2023/04/27 07:29:02;;;;;;;5.38;3.00;;;10.10;99.90;;;;;;4992983;28;20049;-72
2023/04/27 07:31:28;;;;;;;6.32;3.17;;;10.20;99.90;;;;;;4996991;28;20040;-73
2023/04/27 07:33:55;;;;;;;3.58;2.42;;;10.30;99.90;;;;;;4987980;28;20452;-70
2023/04/27 07:36:21;;;;;;;4.47;1.85;;;10.30;99.90;;;;;;4983972;28;21897;-73
2023/04/27 07:38:47;;;;;;;5.63;2.15;;;10.50;99.90;;;;;;4967943;28;20042;-70
2023/04/27 07:41:14;;;;;;;4.90;1.60;;;10.60;99.90;;;;;;4974738;28;20803;-70
2023/04/27 07:43:41;;;;;;;5.82;1.73;;;10.50;99.90;;;;;;4985308;28;21415;-71
2023/04/27 07:46:07;;;;;;;5.25;1.45;;;10.60;99.90;;;;;;4991855;28;20029;-72
2023/04/27 07:48:33;;;;;;;2.40;1.20;;;10.70;99.90;;;;;;4992529;28;20025;-71
2023/04/27 07:50:59;;;;;;;3.90;1.65;;;10.90;99.90;;;;;;4980488;28;20046;-72
2023/04/27 07:53:26;;;;;;;4.55;1.40;;;10.90;99.90;;;;;;4984091;28;20668;-72
2023/04/27 07:55:52;;;;;;;3.33;1.70;;;11.00;99.90;;;;;;4985865;28;20112;-74
2023/04/27 07:58:19;;;;;;;2.78;1.35;;;11.10;99.90;;;;;;4986984;28;20029;-73
2023/04/27 08:00:45;;;;;;;5.22;1.38;;;11.10;99.90;;;;;;4978615;28;20041;-72
2023/04/27 08:03:12;;;;;;;6.18;1.45;;;11.20;99.90;;;;;;4983628;28;20744;-71
2023/04/27 08:05:38;;;;;;;2.08;0.63;;;11.30;99.90;;;;;;4992851;28;22677;-73
2023/04/27 08:08:04;;;;;;;3.10;1.00;;;11.30;99.90;;;;;;4998550;28;20037;-72
2023/04/27 08:10:31;;;;;;;4.00;1.02;;;11.40;99.90;;;;;;4989370;28;20029;-72
2023/04/27 08:12:57;;;;;;;3.83;0.60;;;11.50;99.90;;;;;;4987134;28;20034;-73
2023/04/27 08:15:23;;;;;;;4.68;0.90;;;11.60;99.90;;;;;;4990054;28;20040;-72
2023/04/27 08:17:50;;;;;;;3.28;0.93;;;11.60;99.90;;;;;;4972496;28;20424;-72
2023/04/27 08:20:16;;;;;;;2.35;0.80;;;11.70;99.90;;;;;;4985982;28;20041;-72
2023/04/27 08:22:43;;;;;;;3.13;0.70;;;11.70;99.90;;;;;;4984711;28;20040;-73
2023/04/27 08:25:09;;;;;;;3.00;0.80;;;11.80;99.90;;;;;;4992697;28;20061;-72
2023/04/27 08:27:39;;;;;;;3.45;0.85;;;11.80;99.80;;;;;;4998840;28;20021;-74
2023/04/27 08:30:06;;;;;;;1.25;0.50;;;11.90;99.60;;;;;;4992728;28;20041;-73
2023/04/27 08:32:32;;;;;;;1.25;0.52;;;12.00;99.70;;;;;;4986985;28;20481;-72
2023/04/27 08:34:58;;;;;;;3.72;0.65;;;12.30;98.90;;;;;;4989488;28;20048;-72
2023/04/27 08:37:25;;;;;;;3.85;1.25;;;12.40;98.10;;;;;;4970171;28;20030;-72
2023/04/27 08:39:51;;;;;;;4.25;0.70;;;12.60;97.80;;;;;;4981750;28;20037;-72
2023/04/27 08:42:17;;;;;;;1.88;0.68;;;12.60;97.50;;;;;;4966013;28;20053;-74
2023/04/27 08:44:44;;;;;;;2.28;0.80;;;12.50;96.60;;;;;;4991588;28;20838;-74
2023/04/27 08:47:10;;;;;;;3.08;0.82;;;12.60;96.40;;;;;;4996091;28;20037;-73
2023/04/27 08:49:37;;;;;;;2.83;0.80;;;12.50;96.00;;;;;;4991831;28;20725;-73
2023/04/27 08:52:11;;;;;;;1.77;0.80;;;12.60;96.20;;;;;;4968295;28;20485;-72
2023/04/27 08:54:37;;;;;;;2.95;0.80;;;12.70;95.90;;;;;;4986780;28;20609;-72
2023/04/27 08:57:09;;;;;;;2.38;0.60;;;12.80;95.10;;;;;;4990353;28;20038;-73
2023/04/27 08:59:36;;;;;;;1.90;0.63;;;13.00;95.10;;;;;;4970243;28;20040;-74
2023/04/27 09:02:02;;;;;;;3.50;1.10;;;13.00;94.60;;;;;;4984840;28;20389;-72
2023/04/27 09:04:37;;;;;;;2.67;0.68;;;13.00;94.20;;;;;;4989610;28;20045;-72
2023/04/27 09:07:14;;;;;;;3.20;0.77;;;13.20;94.30;;;;;;4996858;28;20424;-73
2023/04/27 09:09:41;;;;;;;2.35;0.70;;;13.30;94.20;;;;;;4994933;28;20037;-73
2023/04/27 09:12:18;;;;;;;2.70;0.70;;;13.40;94.10;;;;;;4984804;28;20443;-75
2023/04/27 09:15:02;;;;;;;2.42;1.20;;;13.60;93.80;;;;;;4989881;28;20397;-76
2023/04/27 09:17:32;;;;;;;2.65;1.20;;;13.60;91.80;;;;;;4987318;28;20033;-75
2023/04/27 09:20:11;;;;;;;2.88;1.25;;;13.50;92.40;;;;;;4966978;28;20048;-75
2023/04/27 09:22:44;;;;;;;3.72;0.60;;;13.60;92.60;;;;;;4984130;28;20037;-75
2023/04/27 09:25:26;;;;;;;1.52;0.52;;;13.70;92.00;;;;;;4994349;28;20029;-76
2023/04/27 09:27:53;;;;;;;2.65;0.90;;;13.90;92.10;;;;;;4980351;28;20249;-72
2023/04/27 09:30:20;;;;;;;3.08;0.88;;;14.10;91.90;;;;;;4955363;28;20044;-74
2023/04/27 09:32:56;;;;;;;3.05;0.65;;;14.20;91.90;;;;;;4983508;28;20043;-73
2023/04/27 09:35:30;;;;;;;3.00;1.20;;;14.30;91.60;;;;;;4988709;28;20037;-73
2023/04/27 09:37:57;;;;;;;2.75;1.00;;;14.30;90.70;;;;;;4971319;28;20052;-73
2023/04/27 09:40:28;;;;;;;2.60;0.85;;;14.30;90.30;;;;;;4985415;28;20406;-73
2023/04/27 09:42:56;;;;;;;3.80;1.23;;;14.40;90.70;;;;;;4965368;28;20586;-74
2023/04/27 09:45:23;;;;;;;5.22;1.20;;;14.50;90.40;;;;;;5010643;28;20045;-73
2023/04/27 09:47:50;;;;;;;5.57;1.58;;;14.70;89.90;;;;;;4997137;28;20060;-72
2023/04/27 09:50:16;;;;;;;3.65;0.98;;;14.60;87.50;;;;;;4989294;28;20053;-74
2023/04/27 09:52:45;;;;;;;4.00;1.40;;;14.60;87.70;;;;;;4967195;28;21191;-74
2023/04/27 09:55:29;;;;;;;2.58;0.90;;;14.70;87.00;;;;;;4989034;28;20448;-75
2023/04/27 09:58:23;;;;;;;4.22;1.38;;;14.80;87.50;;;;;;4987249;28;20029;-74
2023/04/27 10:01:07;;;;;;;5.50;1.10;;;14.90;85.00;;;;;;4976184;28;20040;-76
2023/04/27 10:03:46;;;;;;;2.60;1.17;;;14.70;84.00;;;;;;4988180;28;20038;-73
2023/04/27 10:06:47;;;;;;;2.60;0.90;;;14.60;84.50;;;;;;4994055;28;20029;-74
2023/04/27 10:09:16;;;;;;;4.13;1.20;;;14.60;84.70;;;;;;4993263;28;20037;-74
2023/04/27 10:11:43;;;;;;;4.10;1.40;;;14.80;84.60;;;;;;4977142;28;20053;-73
2023/04/27 10:14:17;;;;;;;3.35;1.15;;;14.80;83.60;;;;;;4985067;28;20427;-73
2023/04/27 10:16:49;;;;;;;4.25;1.63;;;14.70;82.60;;;;;;4986261;28;23097;-71
2023/04/27 10:19:15;;;;;;;;;;;14.80;82.70;;;;;;4988615;28;20042;-74
2023/04/27 10:22:02;;;;;;;4.20;1.40;;;14.90;81.00;;;;;;4977988;28;19921;-71
2023/04/27 10:24:36;;;;;;;5.90;1.60;;;15.00;81.70;;;;;;4988579;28;20044;-72
2023/04/27 10:27:05;;;;;;;2.67;0.95;;;15.10;80.20;;;;;;4996256;28;20040;-73
2023/04/27 10:29:43;;;;;;;3.95;1.20;;;15.20;80.00;;;;;;5025300;28;20463;-73
2023/04/27 10:32:20;;;;;;;4.53;1.20;;;15.20;79.50;;;;;;4969725;28;20397;-74
2023/04/27 10:34:47;;;;;;;3.53;1.33;;;15.50;79.60;;;;;;4985229;28;20424;-76
2023/04/27 10:37:14;;;;;;;4.50;1.45;;;15.80;78.30;;;;;;4989031;28;20033;-71
2023/04/27 10:39:42;;;;;;;3.05;1.27;;;16.10;77.90;;;;;;4985121;28;20072;-72
2023/04/27 10:42:09;;;;;;;2.83;1.10;;;16.60;77.40;;;;;;4984185;28;20543;-73
2023/04/27 10:44:37;;;;;;;2.20;0.90;;;16.80;75.90;;;;;;4987905;28;20440;-73
2023/04/27 10:47:18;;;;;;;3.00;1.77;;;16.90;76.30;;;;;;4993007;28;20025;-72
2023/04/27 10:49:45;;;;;;;2.33;1.20;;;17.00;73.80;;;;;;4993506;28;20038;-72
2023/04/27 10:52:11;;;;;;;3.03;1.33;;;17.20;74.20;;;;;;4985811;28;20056;-72
2023/04/27 10:54:38;;;;;;;2.70;1.23;;;17.40;73.00;;;;;;4984804;28;20044;-73
2023/04/27 10:57:07;;;;;;;2.40;1.10;;;17.40;72.60;;;;;;5017405;28;20029;-73
2023/04/27 10:59:45;;;;;;;2.42;1.23;;;17.60;71.30;;;;;;5015682;28;20025;-71
2023/04/27 11:02:12;;;;;;;4.13;1.10;;;17.80;70.40;;;;;;4983951;28;20037;-73
2023/04/27 11:04:40;;;;;;;3.30;1.10;;;18.10;70.20;;;;;;4970579;28;20052;-72
2023/04/27 11:07:09;;;;;;;2.03;1.20;;;18.50;70.20;;;;;;4993698;28;20602;-72
2023/04/27 11:09:37;;;;;;;6.72;3.78;;;18.80;69.40;;;;;;5009359;28;20037;-73
2023/04/27 11:12:06;;;;;;;2.63;1.40;;;19.20;68.80;;;;;;4970600;28;20440;-73
2023/04/27 11:14:36;;;;;;;2.95;1.23;;;19.60;67.70;;;;;;4986830;28;20034;-73
2023/04/27 11:17:03;;;;;;;5.57;2.00;;;19.90;66.90;;;;;;4985685;28;20033;-72
2023/04/27 11:19:29;;;;;;;2.65;1.20;;;20.20;64.10;;;;;;4970052;28;20037;-72
2023/04/27 11:22:05;;;;;;;2.03;1.60;;;20.40;64.40;;;;;;4982932;28;20037;-72
2023/04/27 11:24:32;;;;;;;5.40;1.70;;;20.50;63.80;;;;;;4985154;28;20049;-73
2023/04/27 11:26:59;;;;;;;2.92;1.60;;;20.90;63.50;;;;;;4992130;28;20396;-74
2023/04/27 11:29:25;;;;;;;3.50;1.60;;;21.40;62.90;;;;;;4994319;28;20037;-74
2023/04/27 11:31:52;;;;;;;2.65;1.48;;;21.80;61.70;;;;;;4973888;28;22628;-74
2023/04/27 11:34:20;;;;;;;3.05;1.40;;;21.80;59.10;;;;;;4986470;28;20036;-74
2023/04/27 11:37:00;;;;;;;3.83;1.83;;;21.50;56.80;;;;;;4987820;28;20037;-72
2023/04/27 11:39:28;;;;;;;2.17;1.50;;;21.40;55.10;;;;;;4998952;28;20026;-73
2023/04/27 11:41:54;;;;;;;2.78;1.45;;;21.20;55.40;;;;;;4967342;28;20803;-74
2023/04/27 11:44:26;;;;;;;2.78;1.58;;;21.20;55.50;;;;;;5019954;28;20045;-73
2023/04/27 11:46:52;;;;;;;4.07;2.63;;;21.40;55.80;;;;;;4994452;28;21214;-74
2023/04/27 11:49:19;;;;;;;6.70;4.55;;;21.80;56.10;;;;;;4996511;28;20396;-74
2023/04/27 11:51:46;;;;;;;3.88;2.15;;;22.30;55.50;;;;;;4958079;28;20049;-74
2023/04/27 11:54:13;;;;;;;4.70;2.17;;;22.60;53.40;;;;;;4987361;28;20264;-73
2023/04/27 11:56:41;;;;;;;4.20;3.05;;;22.60;52.60;;;;;;4989675;28;20118;-73
2023/04/27 11:59:22;;;;;;;6.03;2.20;;;22.60;52.80;;;;;;4989798;28;20033;-72
2023/04/27 12:01:50;;;;;;;2.45;1.52;;;23.00;53.50;;;;;;4984528;28;20599;-71
2023/04/27 12:04:16;;;;;;;3.17;1.80;;;23.20;52.40;;;;;;4991071;28;20326;-71
2023/04/27 12:06:42;;;;;;;3.85;1.50;;;23.10;51.80;;;;;;4973586;28;20025;-71
2023/04/27 12:09:09;;;;;;;3.30;1.33;;;22.90;51.00;;;;;;5012121;22;20085;-72
2023/04/27 12:11:35;;;;;;;3.47;2.38;;;22.60;51.70;;;;;;4946366;28;20045;-71
2023/04/27 12:14:01;;;;;;;2.15;1.38;;;22.40;51.20;;;;;;4952968;28;20114;-72
2023/04/27 12:16:28;;;;;;;2.88;1.50;;;22.50;52.00;;;;;;4950253;28;20405;-71
2023/04/27 12:18:54;;;;;;;6.72;1.65;;;22.90;52.20;;;;;;4946083;28;20054;-71
2023/04/27 12:21:21;;;;;;;2.72;1.23;;;23.50;51.90;;;;;;4942521;28;20037;-71
2023/04/27 12:23:47;;;;;;;4.32;1.52;;;23.90;49.90;;;;;;4967268;28;20041;-72
2023/04/27 12:26:13;;;;;;;3.47;1.27;;;24.00;49.40;;;;;;4952332;28;20038;-72
2023/04/27 12:28:39;;;;;;;2.75;1.25;;;24.10;49.70;;;;;;4940321;28;20041;-72
2023/04/27 12:31:07;;;;;;;3.22;1.20;;;24.20;48.60;;;;;;4953737;28;20034;-72
2023/04/27 12:33:33;;;;;;;2.95;1.52;;;24.20;48.60;;;;;;4958123;28;20030;-71
2023/04/27 12:35:59;;;;;;;3.38;1.38;;;24.40;48.40;;;;;;4949836;28;20060;-73
2023/04/27 12:38:26;;;;;;;3.08;1.30;;;24.50;46.40;;;;;;4920256;28;20038;-71
2023/04/27 12:40:52;;;;;;;2.65;1.10;;;24.10;45.10;;;;;;4945648;28;20035;-73
2023/04/27 12:43:18;;;;;;;3.08;1.55;;;23.70;46.20;;;;;;4948020;28;20042;-72
2023/04/27 12:45:44;;;;;;;3.65;1.45;;;24.00;46.60;;;;;;4951401;28;22344;-71
2023/04/27 12:48:11;;;;;;;3.03;1.40;;;24.10;45.90;;;;;;4936366;28;20030;-71
2023/04/27 12:50:37;;;;;;;3.05;1.63;;;24.00;46.10;;;;;;4937792;28;20408;-70
2023/04/27 12:53:03;;;;;;;4.13;1.30;;;24.00;46.40;;;;;;4956435;28;20034;-70
2023/04/27 12:55:30;;;;;;;3.33;1.08;;;24.00;46.40;;;;;;4954480;28;20053;-70